createdAt,value
2022-11-10T00:04:29.150Z,8.9
2022-11-10T00:09:37.043Z,8.9
2022-11-10T00:14:43.215Z,9.1
2022-11-10T00:19:49.409Z,9.1
2022-11-10T00:24:57.336Z,9.1
2022-11-10T00:30:05.288Z,9.1
2022-11-10T00:35:11.462Z,9.1
2022-11-10T00:40:19.386Z,9.1
2022-11-10T00:45:27.352Z,8.9
2022-11-10T00:50:35.339Z,8.9
2022-11-10T00:55:41.476Z,8.9
2022-11-10T01:00:49.508Z,9.1
2022-11-10T01:05:55.629Z,9.1
2022-11-10T01:11:01.755Z,9.1
2022-11-10T01:16:09.708Z,9.1
2022-11-10T01:21:17.670Z,9.1
2022-11-10T01:26:23.833Z,9
2022-11-10T01:31:29.981Z,9
2022-11-10T01:36:37.951Z,9
2022-11-10T01:41:44.098Z,8.9
2022-11-10T01:46:50.269Z,8.9
2022-11-10T01:51:56.438Z,8.9
2022-11-10T01:57:04.366Z,9
2022-11-10T02:02:10.532Z,9
2022-11-10T02:07:16.773Z,9
2022-11-10T02:12:22.872Z,9
2022-11-10T02:17:29.088Z,9
2022-11-10T02:22:35.225Z,9
2022-11-10T02:27:41.369Z,9
2022-11-10T02:32:49.313Z,9
2022-11-10T02:37:55.495Z,9
2022-11-10T02:43:03.425Z,9
2022-11-10T02:48:09.597Z,9
2022-11-10T02:53:17.574Z,9
2022-11-10T02:58:23.712Z,9
2022-11-10T03:03:31.666Z,9
2022-11-10T03:08:39.628Z,9
2022-11-10T03:14:00.756Z,9
2022-11-10T03:18:53.752Z,9
2022-11-10T03:24:01.720Z,9
2022-11-10T03:29:09.630Z,9
2022-11-10T03:34:17.574Z,9
2022-11-10T03:39:25.550Z,9
2022-11-10T03:44:33.471Z,9
2022-11-10T03:49:39.633Z,9
2022-11-10T03:54:47.621Z,9
2022-11-10T03:59:53.764Z,9
2022-11-10T04:05:01.711Z,9
2022-11-10T04:10:07.905Z,9
2022-11-10T04:15:15.827Z,9
2022-11-10T04:20:23.781Z,9
2022-11-10T04:25:29.971Z,9
2022-11-10T04:30:36.115Z,9
2022-11-10T04:35:42.267Z,9
2022-11-10T04:40:48.444Z,9
2022-11-10T04:45:54.614Z,9
2022-11-10T04:51:02.567Z,9
2022-11-10T04:56:10.513Z,9
2022-11-10T05:01:18.472Z,9
2022-11-10T05:06:24.605Z,9
2022-11-10T05:11:30.846Z,9
2022-11-10T05:16:38.751Z,9
2022-11-10T05:21:46.677Z,9.2
2022-11-10T05:26:52.875Z,9.2
2022-11-10T05:31:59.047Z,9.2
2022-11-10T05:37:06.964Z,9.2
2022-11-10T05:42:14.943Z,9.2
2022-11-10T05:47:21.075Z,9.2
2022-11-10T05:52:29.033Z,9.2
2022-11-10T05:57:35.212Z,9.1
2022-11-10T06:02:43.157Z,9.1
2022-11-10T06:07:49.324Z,9.2
2022-11-10T06:12:57.306Z,9.2
2022-11-10T06:18:03.424Z,9.4
2022-11-10T06:23:11.389Z,9.3
2022-11-10T06:28:17.580Z,9.1
2022-11-10T06:33:25.757Z,9.1
2022-11-10T06:38:33.437Z,9.1
2022-11-10T06:43:39.654Z,9.1
2022-11-10T06:48:45.785Z,9.2
2022-11-10T06:53:53.727Z,9.2
2022-11-10T06:59:01.691Z,9.2
2022-11-10T07:04:23.837Z,9.2
2022-11-10T07:09:15.822Z,9.2
2022-11-10T07:14:23.781Z,9.2
2022-11-10T07:24:39.655Z,9.4
2022-11-10T07:29:45.852Z,9.4
2022-11-10T07:34:53.756Z,9.4
2022-11-10T07:39:59.923Z,9.5
2022-11-10T07:45:07.902Z,9.5
2022-11-10T07:50:14.042Z,9.5
2022-11-10T07:55:21.994Z,9.5
2022-11-10T08:00:28.196Z,9.5
2022-11-10T08:05:34.315Z,9.5
2022-11-10T08:10:40.482Z,9.5
2022-11-10T08:15:46.705Z,9.7
2022-11-10T08:20:52.838Z,9.7
2022-11-10T08:25:59.000Z,9.7
2022-11-10T08:31:06.156Z,9.7
2022-11-10T08:36:13.152Z,9.7
2022-11-10T08:41:19.280Z,9.7
2022-11-10T08:46:27.248Z,9.8
2022-11-10T08:51:38.760Z,9.8
2022-11-10T08:56:41.318Z,9.7
2022-11-10T09:01:47.532Z,9.7
2022-11-10T09:06:55.501Z,9.8
2022-11-10T09:12:01.640Z,9.8
2022-11-10T09:17:09.596Z,9.8
2022-11-10T09:22:15.756Z,9.8
2022-11-10T09:27:23.737Z,9.8
2022-11-10T09:32:29.879Z,9.8
2022-11-10T09:37:36.034Z,9.8
2022-11-10T09:42:42.309Z,9.8
2022-11-10T09:47:57.271Z,9.8
2022-11-10T09:52:56.312Z,9.8
2022-11-10T09:58:02.481Z,9.8
2022-11-10T10:03:10.445Z,9.8
2022-11-10T10:08:16.577Z,9.8
2022-11-10T10:13:24.702Z,9.8
2022-11-10T10:18:30.732Z,9.8
2022-11-10T10:24:07.652Z,9.8
2022-11-10T10:28:44.832Z,9.8
2022-11-10T10:33:51.024Z,9.8
2022-11-10T10:38:57.162Z,9.8
2022-11-10T10:44:03.328Z,9.9
2022-11-10T10:49:27.401Z,9.9
2022-11-10T10:54:17.438Z,9.9
2022-11-10T10:59:23.626Z,9.9
2022-11-10T11:04:31.586Z,9.9
2022-11-10T11:09:39.513Z,9.9
2022-11-10T11:14:46.350Z,9.9
2022-11-10T11:19:59.639Z,9.9
2022-11-10T11:25:01.604Z,9.9
2022-11-10T11:30:07.751Z,9.9
2022-11-10T11:35:13.939Z,9.9
2022-11-10T11:40:20.154Z,9.9
2022-11-10T11:45:26.238Z,9.9
2022-11-10T11:50:32.428Z,9.7
2022-11-10T11:55:38.564Z,9.7
2022-11-10T12:00:44.744Z,9.9
2022-11-10T12:05:52.726Z,9.9
2022-11-10T12:11:00.636Z,9.9
2022-11-10T12:16:06.817Z,9.9
2022-11-10T12:21:14.766Z,9.9
2022-11-10T12:26:22.733Z,9.7
2022-11-10T12:31:30.654Z,9.7
2022-11-10T12:36:38.616Z,9.7
2022-11-10T12:41:46.581Z,9.7
2022-11-10T12:46:52.717Z,9.9
2022-11-10T12:52:00.676Z,9.9
2022-11-10T12:57:08.607Z,9.9
2022-11-10T13:02:14.845Z,10
2022-11-10T13:07:22.850Z,10.1
2022-11-10T13:12:28.887Z,10.1
2022-11-10T13:17:36.843Z,10
2022-11-10T13:22:43.049Z,10
2022-11-10T13:27:50.960Z,10
2022-11-10T13:32:57.154Z,10
2022-11-10T13:38:05.128Z,10
2022-11-10T13:43:11.248Z,10
2022-11-10T13:48:17.391Z,10
2022-11-10T13:53:23.621Z,10
2022-11-10T13:58:29.764Z,10
2022-11-10T14:03:36.045Z,10
2022-11-10T14:08:43.904Z,10
2022-11-10T14:13:50.043Z,10.2
2022-11-10T14:18:57.991Z,10
2022-11-10T14:24:05.974Z,10
2022-11-10T14:29:12.120Z,10
2022-11-10T14:34:20.048Z,10
2022-11-10T14:39:26.335Z,10
2022-11-10T14:44:34.193Z,10
2022-11-10T14:49:40.327Z,10
2022-11-10T14:54:48.400Z,10
2022-11-10T14:59:54.455Z,10
2022-11-10T15:05:00.612Z,10
2022-11-10T15:10:06.935Z,10
2022-11-10T15:15:12.932Z,10
2022-11-10T15:20:20.912Z,10
2022-11-10T15:25:27.202Z,10
2022-11-10T15:30:33.243Z,9.9
2022-11-10T15:35:39.407Z,9.8
2022-11-10T15:40:45.689Z,9.8
2022-11-10T15:45:53.527Z,9.8
2022-11-10T15:50:59.672Z,9.7
2022-11-10T15:56:07.761Z,9.7
2022-11-10T16:01:13.889Z,9.7
2022-11-10T16:06:19.965Z,9.7
2022-11-10T16:11:28.043Z,9.7
2022-11-10T16:16:35.885Z,9.5
2022-11-10T16:21:42.044Z,9.5
2022-11-10T16:26:50.099Z,9.5
2022-11-10T16:31:56.151Z,9.5
2022-11-10T16:37:04.109Z,9.5
2022-11-10T16:42:12.171Z,9.5
2022-11-10T16:47:18.217Z,9.4
2022-11-10T16:52:26.170Z,9.4
2022-11-10T16:57:39.685Z,9.4
2022-11-10T17:02:40.288Z,9.4
2022-11-10T17:07:46.480Z,9.4
2022-11-10T17:12:54.522Z,9.4
2022-11-10T17:18:04.416Z,9.4
2022-11-10T17:23:06.793Z,9.4
2022-11-10T17:28:14.834Z,9.4
2022-11-10T17:33:22.934Z,9.4
2022-11-10T17:38:28.814Z,9.4
2022-11-10T17:43:39.403Z,9.4
2022-11-10T17:48:42.945Z,9.2
2022-11-10T17:53:50.861Z,9.2
2022-11-10T17:58:57.171Z,9.2
2022-11-10T18:04:04.995Z,9.2
2022-11-10T18:09:11.157Z,9.2
2022-11-10T18:14:17.448Z,9.2
2022-11-10T18:19:25.284Z,9.2
2022-11-10T18:24:33.232Z,9.2
2022-11-10T18:29:39.503Z,9.2
2022-11-10T18:34:47.349Z,9.2
2022-11-10T18:39:53.561Z,9.2
2022-11-10T18:45:01.600Z,9.2
2022-11-10T18:50:09.407Z,9.2
2022-11-10T18:55:15.575Z,9.2
2022-11-10T19:00:21.873Z,9.2
2022-11-10T19:05:29.878Z,9.2
2022-11-10T19:10:37.640Z,9.2
2022-11-10T19:15:45.696Z,9.2
2022-11-10T19:20:51.742Z,9.2
2022-11-10T19:25:59.708Z,9.2
2022-11-10T19:31:06.004Z,9.2
2022-11-10T19:36:13.798Z,9.2
2022-11-10T19:41:19.985Z,9.2
2022-11-10T19:46:28.069Z,9.2
2022-11-10T19:51:34.105Z,9.2
2022-11-10T19:56:42.057Z,9.2
2022-11-10T20:01:48.442Z,9.2
2022-11-10T20:06:54.466Z,9.2
2022-11-10T20:12:00.546Z,9.2
2022-11-10T20:17:06.860Z,9.2
2022-11-10T20:22:12.975Z,9.2
2022-11-10T20:27:19.057Z,9.2
2022-11-10T20:32:25.336Z,9.2
2022-11-10T20:37:31.367Z,9.2
2022-11-10T20:42:42.424Z,9.2
2022-11-10T20:47:43.913Z,9.2
2022-11-10T20:52:51.678Z,9.2
2022-11-10T20:57:57.852Z,9.2
2022-11-10T21:03:04.125Z,9.2
2022-11-10T21:08:11.965Z,9.2
2022-11-10T21:13:20.046Z,9.2
2022-11-10T21:18:27.966Z,9.2
2022-11-10T21:23:34.049Z,9.2
2022-11-10T21:28:40.182Z,9.2
2022-11-10T21:33:46.469Z,9.2
2022-11-10T21:38:52.532Z,9.2
2022-11-10T21:44:00.475Z,9.2
2022-11-10T21:49:08.125Z,9.2
2022-11-10T21:54:14.586Z,9.2
2022-11-10T21:59:22.569Z,9.2
2022-11-10T22:04:30.598Z,9.2
2022-11-10T22:09:36.643Z,9.2
2022-11-10T22:14:42.814Z,9.2
2022-11-10T22:19:50.874Z,9.2
2022-11-10T22:24:56.919Z,9.2
2022-11-10T22:30:04.881Z,9.2
2022-11-10T22:35:12.962Z,9.2
2022-11-10T22:40:18.997Z,9.2
2022-11-10T22:45:25.157Z,9.2
2022-11-10T22:50:33.232Z,9.2
2022-11-10T22:55:41.046Z,9.2
2022-11-10T23:00:47.224Z,9.2
2022-11-10T23:05:56.609Z,9.2
2022-11-10T23:11:01.347Z,9.2
2022-11-10T23:16:07.504Z,9.2
2022-11-10T23:21:13.798Z,9.2
2022-11-10T23:26:19.837Z,9.2
2022-11-10T23:31:27.784Z,9.2
2022-11-10T23:36:34.084Z,9.2
2022-11-10T23:46:49.834Z,9.2
2022-11-10T23:51:56.166Z,9.2
2022-11-10T23:57:03.967Z,9.2
